sensor_id;sensor_type;location;lat;lon;timestamp;P1;durP1;ratioP1;P2;durP2;ratioP2
13319;SDS011;59599;47.608;12.190;2023-03-01T05:00:53;32.97;;;23.13;;
13319;SDS011;59599;47.608;12.190;2023-03-01T05:03:19;35.00;;;25.10;;
13319;SDS011;59599;47.608;12.190;2023-03-01T05:05:47;30.13;;;23.67;;
13319;SDS011;59599;47.608;12.190;2023-03-01T05:08:14;33.00;;;25.60;;
13319;SDS011;59599;47.608;12.190;2023-03-01T05:10:50;31.23;;;24.67;;
13319;SDS011;59599;47.608;12.190;2023-03-01T05:13:18;29.90;;;23.57;;
13319;SDS011;59599;47.608;12.190;2023-03-01T05:15:54;32.60;;;22.97;;
13319;SDS011;59599;47.608;12.190;2023-03-01T05:18:22;32.23;;;24.17;;
13319;SDS011;59599;47.608;12.190;2023-03-01T05:20:51;29.80;;;23.80;;
13319;SDS011;59599;47.608;12.190;2023-03-01T05:23:17;32.93;;;23.10;;
13319;SDS011;59599;47.608;12.190;2023-03-01T05:25:43;31.20;;;24.40;;
13319;SDS011;59599;47.608;12.190;2023-03-01T05:28:10;29.57;;;23.80;;
13319;SDS011;59599;47.608;12.190;2023-03-01T05:30:37;32.63;;;23.90;;
13319;SDS011;59599;47.608;12.190;2023-03-01T05:33:06;28.77;;;23.30;;
13319;SDS011;59599;47.608;12.190;2023-03-01T05:35:38;31.60;;;23.97;;
13319;SDS011;59599;47.608;12.190;2023-03-01T05:38:04;26.73;;;21.70;;
13319;SDS011;59599;47.608;12.190;2023-03-01T05:40:30;27.17;;;22.30;;
13319;SDS011;59599;47.608;12.190;2023-03-01T05:42:58;29.07;;;23.27;;
13319;SDS011;59599;47.608;12.190;2023-03-01T05:45:24;29.73;;;23.27;;
13319;SDS011;59599;47.608;12.190;2023-03-01T05:47:51;29.07;;;22.60;;
13319;SDS011;59599;47.608;12.190;2023-03-01T05:52:50;30.00;;;23.13;;
13319;SDS011;59599;47.608;12.190;2023-03-01T05:55:17;31.87;;;22.60;;
13319;SDS011;59599;47.608;12.190;2023-03-01T05:57:45;28.40;;;23.10;;
13319;SDS011;59599;47.608;12.190;2023-03-01T06:00:12;26.07;;;22.37;;
13319;SDS011;59599;47.608;12.190;2023-03-01T06:02:39;29.30;;;22.50;;
13319;SDS011;59599;47.608;12.190;2023-03-01T06:05:05;28.60;;;22.17;;
13319;SDS011;59599;47.608;12.190;2023-03-01T06:07:31;30.07;;;22.73;;
13319;SDS011;59599;47.608;12.190;2023-03-01T06:09:57;27.60;;;22.50;;
13319;SDS011;59599;47.608;12.190;2023-03-01T06:12:22;30.13;;;22.93;;
13319;SDS011;59599;47.608;12.190;2023-03-01T06:14:48;31.90;;;22.83;;
13319;SDS011;59599;47.608;12.190;2023-03-01T06:17:14;30.80;;;23.77;;
13319;SDS011;59599;47.608;12.190;2023-03-01T06:19:40;28.37;;;22.60;;
13319;SDS011;59599;47.608;12.190;2023-03-01T06:22:06;25.93;;;22.03;;
13319;SDS011;59599;47.608;12.190;2023-03-01T06:24:33;27.03;;;21.93;;
13319;SDS011;59599;47.608;12.190;2023-03-01T06:26:59;29.40;;;23.13;;
13319;SDS011;59599;47.608;12.190;2023-03-01T06:29:24;27.63;;;22.40;;
13319;SDS011;59599;47.608;12.190;2023-03-01T06:31:50;27.47;;;22.97;;
13319;SDS011;59599;47.608;12.190;2023-03-01T06:34:16;30.30;;;22.87;;
13319;SDS011;59599;47.608;12.190;2023-03-01T06:36:42;28.50;;;22.03;;
13319;SDS011;59599;47.608;12.190;2023-03-01T06:39:08;27.93;;;21.73;;
13319;SDS011;59599;47.608;12.190;2023-03-01T06:41:34;30.93;;;22.50;;
13319;SDS011;59599;47.608;12.190;2023-03-01T06:44:00;24.63;;;20.77;;
13319;SDS011;59599;47.608;12.190;2023-03-01T06:46:27;29.80;;;23.30;;
13319;SDS011;59599;47.608;12.190;2023-03-01T06:48:53;30.00;;;23.03;;
13319;SDS011;59599;47.608;12.190;2023-03-01T06:51:18;29.47;;;22.73;;
13319;SDS011;59599;47.608;12.190;2023-03-01T06:53:45;28.87;;;21.80;;
13319;SDS011;59599;47.608;12.190;2023-03-01T06:56:11;25.97;;;21.43;;
13319;SDS011;59599;47.608;12.190;2023-03-01T06:58:37;27.80;;;21.70;;
13319;SDS011;59599;47.608;12.190;2023-03-01T07:01:07;27.67;;;22.33;;
13319;SDS011;59599;47.608;12.190;2023-03-01T07:03:33;27.27;;;21.50;;
13319;SDS011;59599;47.608;12.190;2023-03-01T07:05:58;29.43;;;21.43;;
13319;SDS011;59599;47.608;12.190;2023-03-01T07:08:24;29.63;;;23.17;;
13319;SDS011;59599;47.608;12.190;2023-03-01T07:10:57;26.20;;;21.10;;
13319;SDS011;59599;47.608;12.190;2023-03-01T07:13:23;30.53;;;22.07;;
13319;SDS011;59599;47.608;12.190;2023-03-01T07:15:49;27.20;;;21.90;;
13319;SDS011;59599;47.608;12.190;2023-03-01T07:18:15;28.07;;;21.37;;
13319;SDS011;59599;47.608;12.190;2023-03-01T07:20:41;25.77;;;20.97;;
13319;SDS011;59599;47.608;12.190;2023-03-01T07:23:07;26.23;;;21.57;;
13319;SDS011;59599;47.608;12.190;2023-03-01T07:25:33;27.17;;;21.13;;
13319;SDS011;59599;47.608;12.190;2023-03-01T07:27:58;25.40;;;20.47;;
13319;SDS011;59599;47.608;12.190;2023-03-01T07:30:24;27.13;;;21.37;;
13319;SDS011;59599;47.608;12.190;2023-03-01T07:32:52;25.90;;;20.00;;
13319;SDS011;59599;47.608;12.190;2023-03-01T07:35:18;25.67;;;19.57;;
13319;SDS011;59599;47.608;12.190;2023-03-01T07:37:44;28.47;;;19.77;;
13319;SDS011;59599;47.608;12.190;2023-03-01T07:40:10;23.70;;;19.77;;
13319;SDS011;59599;47.608;12.190;2023-03-01T07:42:37;23.40;;;19.77;;
13319;SDS011;59599;47.608;12.190;2023-03-01T07:45:03;25.80;;;19.23;;
13319;SDS011;59599;47.608;12.190;2023-03-01T07:47:29;25.50;;;20.30;;
13319;SDS011;59599;47.608;12.190;2023-03-01T07:49:55;25.43;;;20.07;;
13319;SDS011;59599;47.608;12.190;2023-03-01T07:52:21;26.23;;;20.07;;
13319;SDS011;59599;47.608;12.190;2023-03-01T07:54:47;27.57;;;19.97;;
13319;SDS011;59599;47.608;12.190;2023-03-01T07:57:13;25.13;;;19.77;;
13319;SDS011;59599;47.608;12.190;2023-03-01T07:59:39;23.37;;;18.33;;
13319;SDS011;59599;47.608;12.190;2023-03-01T08:02:05;22.80;;;18.07;;
13319;SDS011;59599;47.608;12.190;2023-03-01T08:04:32;21.83;;;17.17;;
13319;SDS011;59599;47.608;12.190;2023-03-01T08:06:58;24.23;;;18.27;;
13319;SDS011;59599;47.608;12.190;2023-03-01T08:09:24;22.80;;;17.63;;
13319;SDS011;59599;47.608;12.190;2023-03-01T08:11:50;26.80;;;18.37;;
13319;SDS011;59599;47.608;12.190;2023-03-01T08:14:16;23.07;;;17.77;;
13319;SDS011;59599;47.608;12.190;2023-03-01T08:16:42;24.47;;;18.93;;
13319;SDS011;59599;47.608;12.190;2023-03-01T08:19:09;23.83;;;19.00;;
13319;SDS011;59599;47.608;12.190;2023-03-01T08:21:36;26.03;;;17.77;;
13319;SDS011;59599;47.608;12.190;2023-03-01T08:24:03;24.37;;;18.03;;
13319;SDS011;59599;47.608;12.190;2023-03-01T08:26:29;25.07;;;18.53;;
13319;SDS011;59599;47.608;12.190;2023-03-01T08:28:55;23.37;;;17.33;;
13319;SDS011;59599;47.608;12.190;2023-03-01T08:31:22;24.47;;;18.17;;
13319;SDS011;59599;47.608;12.190;2023-03-01T08:33:49;24.03;;;17.10;;
13319;SDS011;59599;47.608;12.190;2023-03-01T08:36:19;23.77;;;18.03;;
13319;SDS011;59599;47.608;12.190;2023-03-01T08:38:46;20.17;;;16.67;;
13319;SDS011;59599;47.608;12.190;2023-03-01T08:41:12;20.27;;;17.07;;
13319;SDS011;59599;47.608;12.190;2023-03-01T08:43:37;21.57;;;16.80;;
13319;SDS011;59599;47.608;12.190;2023-03-01T08:46:03;24.43;;;18.20;;
13319;SDS011;59599;47.608;12.190;2023-03-01T08:48:29;19.23;;;16.10;;
13319;SDS011;59599;47.608;12.190;2023-03-01T08:50:55;21.60;;;17.70;;
13319;SDS011;59599;47.608;12.190;2023-03-01T08:53:22;20.43;;;17.40;;
13319;SDS011;59599;47.608;12.190;2023-03-01T08:55:47;24.33;;;17.47;;
13319;SDS011;59599;47.608;12.190;2023-03-01T08:58:13;22.10;;;18.13;;
13319;SDS011;59599;47.608;12.190;2023-03-01T09:00:40;21.47;;;17.53;;
13319;SDS011;59599;47.608;12.190;2023-03-01T09:03:06;24.53;;;17.67;;
13319;SDS011;59599;47.608;12.190;2023-03-01T09:05:32;23.27;;;16.87;;
13319;SDS011;59599;47.608;12.190;2023-03-01T09:07:59;24.07;;;18.03;;
13319;SDS011;59599;47.608;12.190;2023-03-01T09:10:25;24.00;;;17.83;;
13319;SDS011;59599;47.608;12.190;2023-03-01T09:12:51;22.90;;;17.77;;
13319;SDS011;59599;47.608;12.190;2023-03-01T09:15:17;22.87;;;17.23;;
13319;SDS011;59599;47.608;12.190;2023-03-01T09:17:43;21.90;;;18.47;;
13319;SDS011;59599;47.608;12.190;2023-03-01T09:20:09;21.27;;;17.47;;
13319;SDS011;59599;47.608;12.190;2023-03-01T09:22:35;21.93;;;17.97;;
13319;SDS011;59599;47.608;12.190;2023-03-01T09:25:01;23.17;;;18.50;;
13319;SDS011;59599;47.608;12.190;2023-03-01T09:27:27;23.65;;;19.05;;
13319;SDS011;59599;47.608;12.190;2023-03-01T09:29:53;24.67;;;19.13;;
13319;SDS011;59599;47.608;12.190;2023-03-01T09:32:21;22.20;;;17.43;;
13319;SDS011;59599;47.608;12.190;2023-03-01T09:34:47;23.10;;;20.50;;
13319;SDS011;59599;47.608;12.190;2023-03-01T09:37:32;23.63;;;21.15;;
13319;SDS011;59599;47.608;12.190;2023-03-01T09:39:58;23.63;;;21.23;;
13319;SDS011;59599;47.608;12.190;2023-03-01T09:42:23;25.50;;;19.43;;
13319;SDS011;59599;47.608;12.190;2023-03-01T09:45:00;22.70;;;17.93;;
13319;SDS011;59599;47.608;12.190;2023-03-01T09:47:28;23.57;;;18.37;;
13319;SDS011;59599;47.608;12.190;2023-03-01T09:55:07;26.50;;;18.93;;
13319;SDS011;59599;47.608;12.190;2023-03-01T09:57:47;24.17;;;18.20;;
13319;SDS011;59599;47.608;12.190;2023-03-01T10:00:43;21.67;;;17.30;;
13319;SDS011;59599;47.608;12.190;2023-03-01T10:03:16;25.80;;;17.40;;
13319;SDS011;59599;47.608;12.190;2023-03-01T10:08:43;22.13;;;17.80;;
13319;SDS011;59599;47.608;12.190;2023-03-01T10:11:22;22.10;;;17.30;;
13319;SDS011;59599;47.608;12.190;2023-03-01T10:13:54;26.23;;;18.60;;
13319;SDS011;59599;47.608;12.190;2023-03-01T10:19:20;29.43;;;20.23;;
13319;SDS011;59599;47.608;12.190;2023-03-01T10:22:28;28.80;;;21.20;;
13319;SDS011;59599;47.608;12.190;2023-03-01T10:24:56;24.47;;;18.20;;
13319;SDS011;59599;47.608;12.190;2023-03-01T10:30:21;23.47;;;19.53;;
13319;SDS011;59599;47.608;12.190;2023-03-01T10:32:54;27.67;;;18.87;;
13319;SDS011;59599;47.608;12.190;2023-03-01T10:35:25;25.10;;;18.57;;
13319;SDS011;59599;47.608;12.190;2023-03-01T10:38:11;26.17;;;17.33;;
13319;SDS011;59599;47.608;12.190;2023-03-01T10:43:19;21.90;;;18.00;;
13319;SDS011;59599;47.608;12.190;2023-03-01T10:45:45;26.23;;;18.93;;
13319;SDS011;59599;47.608;12.190;2023-03-01T10:48:12;21.77;;;18.03;;
13319;SDS011;59599;47.608;12.190;2023-03-01T10:50:38;20.27;;;16.77;;
13319;SDS011;59599;47.608;12.190;2023-03-01T10:56:12;20.57;;;16.83;;
13319;SDS011;59599;47.608;12.190;2023-03-01T10:58:40;19.43;;;15.70;;
13319;SDS011;59599;47.608;12.190;2023-03-01T11:04:02;25.20;;;17.87;;
13319;SDS011;59599;47.608;12.190;2023-03-01T11:06:32;19.27;;;15.93;;
13319;SDS011;59599;47.608;12.190;2023-03-01T11:11:57;16.77;;;14.87;;
13319;SDS011;59599;47.608;12.190;2023-03-01T11:14:28;19.40;;;16.47;;
13319;SDS011;59599;47.608;12.190;2023-03-01T11:16:59;20.43;;;16.77;;
13319;SDS011;59599;47.608;12.190;2023-03-01T11:19:29;21.07;;;16.23;;
13319;SDS011;59599;47.608;12.190;2023-03-01T11:22:03;19.73;;;16.60;;
13319;SDS011;59599;47.608;12.190;2023-03-01T11:24:53;23.47;;;16.87;;
13319;SDS011;59599;47.608;12.190;2023-03-01T11:27:33;19.57;;;16.43;;
13319;SDS011;59599;47.608;12.190;2023-03-01T11:32:47;18.47;;;15.83;;
13319;SDS011;59599;47.608;12.190;2023-03-01T11:35:33;16.77;;;14.87;;
13319;SDS011;59599;47.608;12.190;2023-03-01T11:40:33;17.87;;;14.67;;
13319;SDS011;59599;47.608;12.190;2023-03-01T11:43:14;18.17;;;14.47;;
13319;SDS011;59599;47.608;12.190;2023-03-01T12:02:55;17.83;;;15.27;;
13319;SDS011;59599;47.608;12.190;2023-03-01T12:06:03;17.43;;;15.30;;
13319;SDS011;59599;47.608;12.190;2023-03-01T12:11:41;19.63;;;14.83;;
13319;SDS011;59599;47.608;12.190;2023-03-01T12:14:22;20.20;;;14.50;;
13319;SDS011;59599;47.608;12.190;2023-03-01T12:17:21;17.67;;;13.80;;
13319;SDS011;59599;47.608;12.190;2023-03-01T12:25:25;16.03;;;14.20;;
13319;SDS011;59599;47.608;12.190;2023-03-01T12:28:17;17.53;;;13.80;;
13319;SDS011;59599;47.608;12.190;2023-03-01T12:30:52;15.50;;;13.90;;
13319;SDS011;59599;47.608;12.190;2023-03-01T12:36:48;15.87;;;13.23;;
13319;SDS011;59599;47.608;12.190;2023-03-01T12:39:29;16.30;;;13.27;;
13319;SDS011;59599;47.608;12.190;2023-03-01T12:45:04;18.57;;;13.73;;
13319;SDS011;59599;47.608;12.190;2023-03-01T12:52:59;13.37;;;11.97;;
13319;SDS011;59599;47.608;12.190;2023-03-01T12:58:02;15.50;;;13.90;;
13319;SDS011;59599;47.608;12.190;2023-03-01T13:00:59;18.03;;;13.97;;
13319;SDS011;59599;47.608;12.190;2023-03-01T13:03:52;14.60;;;12.97;;
13319;SDS011;59599;47.608;12.190;2023-03-01T13:08:56;15.67;;;13.17;;
13319;SDS011;59599;47.608;12.190;2023-03-01T13:11:28;17.10;;;13.30;;
13319;SDS011;59599;47.608;12.190;2023-03-01T13:16:59;15.80;;;13.80;;
13319;SDS011;59599;47.608;12.190;2023-03-01T13:19:25;16.20;;;13.80;;
13319;SDS011;59599;47.608;12.190;2023-03-01T13:21:57;18.13;;;14.13;;
13319;SDS011;59599;47.608;12.190;2023-03-01T13:32:32;18.33;;;14.17;;
13319;SDS011;59599;47.608;12.190;2023-03-01T13:35:44;19.20;;;14.70;;
13319;SDS011;59599;47.608;12.190;2023-03-01T13:37:45;18.73;;;14.87;;
13319;SDS011;59599;47.608;12.190;2023-03-01T13:42:46;17.27;;;14.37;;
13319;SDS011;59599;47.608;12.190;2023-03-01T13:45:20;20.17;;;15.30;;
13319;SDS011;59599;47.608;12.190;2023-03-01T13:47:58;20.50;;;15.80;;
13319;SDS011;59599;47.608;12.190;2023-03-01T13:50:28;18.43;;;14.50;;
13319;SDS011;59599;47.608;12.190;2023-03-01T13:52:59;16.50;;;14.43;;
13319;SDS011;59599;47.608;12.190;2023-03-01T13:55:32;18.23;;;15.27;;
13319;SDS011;59599;47.608;12.190;2023-03-01T13:58:01;19.43;;;15.83;;
13319;SDS011;59599;47.608;12.190;2023-03-01T14:05:34;16.47;;;14.37;;
13319;SDS011;59599;47.608;12.190;2023-03-01T14:08:01;16.53;;;14.03;;
13319;SDS011;59599;47.608;12.190;2023-03-01T14:10:29;19.43;;;15.80;;
13319;SDS011;59599;47.608;12.190;2023-03-01T14:13:45;20.25;;;16.10;;
13319;SDS011;59599;47.608;12.190;2023-03-01T14:19:00;17.23;;;15.40;;
13319;SDS011;59599;47.608;12.190;2023-03-01T14:21:18;19.30;;;15.30;;
13319;SDS011;59599;47.608;12.190;2023-03-01T14:23:44;19.70;;;16.98;;
13319;SDS011;59599;47.608;12.190;2023-03-01T14:26:11;19.07;;;15.60;;
13319;SDS011;59599;47.608;12.190;2023-03-01T14:28:37;22.07;;;15.50;;
13319;SDS011;59599;47.608;12.190;2023-03-01T14:31:21;19.43;;;15.53;;
13319;SDS011;59599;47.608;12.190;2023-03-01T14:34:18;19.17;;;14.83;;
13319;SDS011;59599;47.608;12.190;2023-03-01T14:36:45;18.97;;;15.83;;
13319;SDS011;59599;47.608;12.190;2023-03-01T14:39:18;19.47;;;16.50;;
13319;SDS011;59599;47.608;12.190;2023-03-01T14:41:44;22.33;;;15.53;;
13319;SDS011;59599;47.608;12.190;2023-03-01T14:44:13;20.33;;;16.63;;
13319;SDS011;59599;47.608;12.190;2023-03-01T14:46:51;21.87;;;16.60;;
13319;SDS011;59599;47.608;12.190;2023-03-01T14:49:19;20.73;;;15.90;;
13319;SDS011;59599;47.608;12.190;2023-03-01T14:51:48;20.03;;;15.97;;
13319;SDS011;59599;47.608;12.190;2023-03-01T14:54:26;21.30;;;16.23;;
13319;SDS011;59599;47.608;12.190;2023-03-01T14:57:00;20.93;;;17.10;;
13319;SDS011;59599;47.608;12.190;2023-03-01T14:59:26;22.90;;;16.67;;
13319;SDS011;59599;47.608;12.190;2023-03-01T15:01:53;20.93;;;16.23;;
13319;SDS011;59599;47.608;12.190;2023-03-01T15:04:22;20.60;;;16.13;;
13319;SDS011;59599;47.608;12.190;2023-03-01T15:06:52;19.47;;;16.77;;
13319;SDS011;59599;47.608;12.190;2023-03-01T15:09:19;21.30;;;15.67;;
13319;SDS011;59599;47.608;12.190;2023-03-01T15:11:46;18.60;;;16.47;;
13319;SDS011;59599;47.608;12.190;2023-03-01T15:14:25;19.33;;;16.57;;
13319;SDS011;59599;47.608;12.190;2023-03-01T15:16:53;22.87;;;16.90;;
13319;SDS011;59599;47.608;12.190;2023-03-01T15:19:18;20.67;;;17.43;;
13319;SDS011;59599;47.608;12.190;2023-03-01T15:21:46;20.43;;;16.33;;
13319;SDS011;59599;47.608;12.190;2023-03-01T15:26:51;20.03;;;16.73;;
13319;SDS011;59599;47.608;12.190;2023-03-01T15:29:23;20.83;;;16.77;;
13319;SDS011;59599;47.608;12.190;2023-03-01T15:32:02;22.13;;;16.30;;
13319;SDS011;59599;47.608;12.190;2023-03-01T15:36:55;21.40;;;16.20;;
13319;SDS011;59599;47.608;12.190;2023-03-01T15:39:29;19.63;;;15.97;;
13319;SDS011;59599;47.608;12.190;2023-03-01T15:42:04;24.33;;;16.27;;
13319;SDS011;59599;47.608;12.190;2023-03-01T15:44:32;18.33;;;15.67;;
13319;SDS011;59599;47.608;12.190;2023-03-01T15:46:59;17.90;;;15.83;;
13319;SDS011;59599;47.608;12.190;2023-03-01T15:49:39;18.27;;;15.87;;
13319;SDS011;59599;47.608;12.190;2023-03-01T15:52:13;17.37;;;15.30;;
13319;SDS011;59599;47.608;12.190;2023-03-01T15:54:41;17.90;;;15.27;;
13319;SDS011;59599;47.608;12.190;2023-03-01T15:57:12;20.67;;;15.70;;
13319;SDS011;59599;47.608;12.190;2023-03-01T15:59:39;19.13;;;14.83;;
13319;SDS011;59599;47.608;12.190;2023-03-01T16:02:10;20.13;;;15.17;;
13319;SDS011;59599;47.608;12.190;2023-03-01T16:04:37;19.53;;;16.00;;
13319;SDS011;59599;47.608;12.190;2023-03-01T16:07:03;17.77;;;15.60;;
13319;SDS011;59599;47.608;12.190;2023-03-01T16:09:29;19.10;;;16.53;;
13319;SDS011;59599;47.608;12.190;2023-03-01T16:11:55;21.23;;;16.67;;
13319;SDS011;59599;47.608;12.190;2023-03-01T16:14:21;16.87;;;14.60;;
13319;SDS011;59599;47.608;12.190;2023-03-01T16:16:47;20.90;;;16.20;;
13319;SDS011;59599;47.608;12.190;2023-03-01T16:19:14;19.03;;;15.97;;
13319;SDS011;59599;47.608;12.190;2023-03-01T16:21:41;17.87;;;15.10;;
13319;SDS011;59599;47.608;12.190;2023-03-01T16:24:07;20.67;;;16.97;;
13319;SDS011;59599;47.608;12.190;2023-03-01T16:26:34;19.00;;;16.60;;
13319;SDS011;59599;47.608;12.190;2023-03-01T16:29:01;20.90;;;17.03;;
13319;SDS011;59599;47.608;12.190;2023-03-01T16:31:27;20.00;;;16.70;;
13319;SDS011;59599;47.608;12.190;2023-03-01T16:33:57;20.70;;;16.57;;
13319;SDS011;59599;47.608;12.190;2023-03-01T16:36:25;25.27;;;17.33;;
13319;SDS011;59599;47.608;12.190;2023-03-01T16:38:53;24.73;;;18.20;;
13319;SDS011;59599;47.608;12.190;2023-03-01T16:41:20;20.97;;;17.00;;
13319;SDS011;59599;47.608;12.190;2023-03-01T16:43:46;22.07;;;16.70;;
13319;SDS011;59599;47.608;12.190;2023-03-01T16:46:16;22.43;;;16.57;;
13319;SDS011;59599;47.608;12.190;2023-03-01T16:48:42;20.87;;;16.67;;
13319;SDS011;59599;47.608;12.190;2023-03-01T16:51:08;21.83;;;17.43;;
13319;SDS011;59599;47.608;12.190;2023-03-01T16:53:34;21.80;;;18.83;;
13319;SDS011;59599;47.608;12.190;2023-03-01T16:56:02;21.23;;;16.87;;
13319;SDS011;59599;47.608;12.190;2023-03-01T16:58:28;22.97;;;16.40;;
13319;SDS011;59599;47.608;12.190;2023-03-01T17:00:55;23.70;;;18.73;;
13319;SDS011;59599;47.608;12.190;2023-03-01T17:03:22;20.63;;;16.63;;
13319;SDS011;59599;47.608;12.190;2023-03-01T17:05:49;21.37;;;16.87;;
13319;SDS011;59599;47.608;12.190;2023-03-01T17:08:15;23.43;;;17.70;;
13319;SDS011;59599;47.608;12.190;2023-03-01T17:10:41;26.27;;;17.37;;
13319;SDS011;59599;47.608;12.190;2023-03-01T17:13:07;22.67;;;16.77;;
13319;SDS011;59599;47.608;12.190;2023-03-01T17:15:34;21.30;;;17.60;;
13319;SDS011;59599;47.608;12.190;2023-03-01T17:18:00;21.03;;;16.90;;
13319;SDS011;59599;47.608;12.190;2023-03-01T17:20:26;25.83;;;18.53;;
13319;SDS011;59599;47.608;12.190;2023-03-01T17:22:51;24.37;;;17.90;;
13319;SDS011;59599;47.608;12.190;2023-03-01T17:25:17;22.50;;;17.33;;
13319;SDS011;59599;47.608;12.190;2023-03-01T17:27:43;25.37;;;19.80;;
13319;SDS011;59599;47.608;12.190;2023-03-01T17:30:10;24.53;;;18.10;;
13319;SDS011;59599;47.608;12.190;2023-03-01T17:32:36;25.93;;;19.43;;
13319;SDS011;59599;47.608;12.190;2023-03-01T17:35:02;22.60;;;17.50;;
13319;SDS011;59599;47.608;12.190;2023-03-01T17:37:28;24.37;;;18.30;;
13319;SDS011;59599;47.608;12.190;2023-03-01T17:39:54;30.30;;;21.80;;
13319;SDS011;59599;47.608;12.190;2023-03-01T17:42:20;43.83;;;28.47;;
13319;SDS011;59599;47.608;12.190;2023-03-01T17:44:46;43.80;;;30.63;;
13319;SDS011;59599;47.608;12.190;2023-03-01T17:47:12;45.57;;;31.00;;
13319;SDS011;59599;47.608;12.190;2023-03-01T17:49:38;43.10;;;29.60;;
13319;SDS011;59599;47.608;12.190;2023-03-01T17:52:04;40.17;;;29.23;;
13319;SDS011;59599;47.608;12.190;2023-03-01T17:54:30;41.13;;;27.90;;
13319;SDS011;59599;47.608;12.190;2023-03-01T17:56:57;37.67;;;26.20;;
13319;SDS011;59599;47.608;12.190;2023-03-01T17:59:23;37.03;;;27.23;;
13319;SDS011;59599;47.608;12.190;2023-03-01T18:01:55;32.60;;;23.30;;
13319;SDS011;59599;47.608;12.190;2023-03-01T18:04:21;31.50;;;22.00;;
13319;SDS011;59599;47.608;12.190;2023-03-01T18:06:46;30.47;;;21.57;;
13319;SDS011;59599;47.608;12.190;2023-03-01T18:09:12;25.53;;;20.30;;
13319;SDS011;59599;47.608;12.190;2023-03-01T18:11:39;27.03;;;20.37;;
13319;SDS011;59599;47.608;12.190;2023-03-01T18:14:06;26.90;;;19.20;;
13319;SDS011;59599;47.608;12.190;2023-03-01T18:16:32;25.13;;;20.43;;
13319;SDS011;59599;47.608;12.190;2023-03-01T18:18:58;33.87;;;24.30;;
13319;SDS011;59599;47.608;12.190;2023-03-01T18:21:24;34.33;;;25.43;;
13319;SDS011;59599;47.608;12.190;2023-03-01T18:23:50;38.20;;;26.30;;
13319;SDS011;59599;47.608;12.190;2023-03-01T18:26:17;38.87;;;28.40;;
13319;SDS011;59599;47.608;12.190;2023-03-01T18:28:46;33.23;;;24.50;;
13319;SDS011;59599;47.608;12.190;2023-03-01T18:31:12;34.70;;;24.23;;
13319;SDS011;59599;47.608;12.190;2023-03-01T18:33:42;32.87;;;23.53;;
13319;SDS011;59599;47.608;12.190;2023-03-01T18:36:15;37.57;;;23.60;;
13319;SDS011;59599;47.608;12.190;2023-03-01T18:38:41;34.77;;;24.07;;
13319;SDS011;59599;47.608;12.190;2023-03-01T18:41:07;34.93;;;24.13;;
13319;SDS011;59599;47.608;12.190;2023-03-01T18:43:33;30.10;;;23.27;;
13319;SDS011;59599;47.608;12.190;2023-03-01T18:45:59;31.37;;;23.53;;
13319;SDS011;59599;47.608;12.190;2023-03-01T18:48:24;28.73;;;23.40;;
13319;SDS011;59599;47.608;12.190;2023-03-01T18:50:50;32.73;;;24.23;;
13319;SDS011;59599;47.608;12.190;2023-03-01T18:53:16;34.17;;;23.90;;
13319;SDS011;59599;47.608;12.190;2023-03-01T18:55:42;30.93;;;22.60;;
13319;SDS011;59599;47.608;12.190;2023-03-01T18:58:08;32.87;;;23.63;;
13319;SDS011;59599;47.608;12.190;2023-03-01T19:00:34;36.57;;;23.37;;
13319;SDS011;59599;47.608;12.190;2023-03-01T19:03:00;31.67;;;24.13;;
13319;SDS011;59599;47.608;12.190;2023-03-01T19:05:27;33.83;;;23.90;;
13319;SDS011;59599;47.608;12.190;2023-03-01T19:07:53;28.43;;;22.73;;
13319;SDS011;59599;47.608;12.190;2023-03-01T19:10:19;35.67;;;24.20;;
13319;SDS011;59599;47.608;12.190;2023-03-01T19:12:45;33.57;;;24.47;;
13319;SDS011;59599;47.608;12.190;2023-03-01T19:15:11;39.93;;;25.13;;
13319;SDS011;59599;47.608;12.190;2023-03-01T19:17:37;37.23;;;24.97;;
13319;SDS011;59599;47.608;12.190;2023-03-01T19:20:03;41.57;;;27.10;;
13319;SDS011;59599;47.608;12.190;2023-03-01T19:22:29;47.87;;;27.83;;
13319;SDS011;59599;47.608;12.190;2023-03-01T19:24:55;38.57;;;27.30;;
13319;SDS011;59599;47.608;12.190;2023-03-01T19:27:21;37.73;;;25.53;;
13319;SDS011;59599;47.608;12.190;2023-03-01T19:29:46;38.93;;;25.73;;
13319;SDS011;59599;47.608;12.190;2023-03-01T19:32:12;34.10;;;24.37;;
13319;SDS011;59599;47.608;12.190;2023-03-01T19:34:39;35.20;;;25.30;;
13319;SDS011;59599;47.608;12.190;2023-03-01T19:37:06;38.67;;;25.23;;
13319;SDS011;59599;47.608;12.190;2023-03-01T19:39:33;33.67;;;24.53;;
13319;SDS011;59599;47.608;12.190;2023-03-01T19:41:59;45.33;;;27.70;;
13319;SDS011;59599;47.608;12.190;2023-03-01T19:44:25;42.70;;;29.87;;
13319;SDS011;59599;47.608;12.190;2023-03-01T19:46:52;37.53;;;26.20;;
13319;SDS011;59599;47.608;12.190;2023-03-01T19:49:18;39.97;;;25.87;;
13319;SDS011;59599;47.608;12.190;2023-03-01T19:51:44;35.80;;;24.00;;
13319;SDS011;59599;47.608;12.190;2023-03-01T19:54:09;33.60;;;23.63;;
13319;SDS011;59599;47.608;12.190;2023-03-01T19:56:38;32.27;;;23.87;;
13319;SDS011;59599;47.608;12.190;2023-03-01T19:59:04;34.07;;;24.07;;
13319;SDS011;59599;47.608;12.190;2023-03-01T20:01:31;34.50;;;22.53;;
13319;SDS011;59599;47.608;12.190;2023-03-01T20:03:58;34.50;;;23.30;;
13319;SDS011;59599;47.608;12.190;2023-03-01T20:06:24;29.30;;;21.40;;
13319;SDS011;59599;47.608;12.190;2023-03-01T20:08:50;32.13;;;21.97;;
13319;SDS011;59599;47.608;12.190;2023-03-01T20:11:16;29.97;;;20.50;;
13319;SDS011;59599;47.608;12.190;2023-03-01T20:13:43;32.47;;;20.97;;
13319;SDS011;59599;47.608;12.190;2023-03-01T20:16:09;25.70;;;18.97;;
13319;SDS011;59599;47.608;12.190;2023-03-01T20:18:35;27.60;;;19.33;;
13319;SDS011;59599;47.608;12.190;2023-03-01T20:21:01;27.43;;;20.63;;
13319;SDS011;59599;47.608;12.190;2023-03-01T20:23:28;25.03;;;18.43;;
13319;SDS011;59599;47.608;12.190;2023-03-01T20:26:01;27.07;;;19.27;;
13319;SDS011;59599;47.608;12.190;2023-03-01T20:28:32;28.27;;;20.90;;
13319;SDS011;59599;47.608;12.190;2023-03-01T20:31:02;30.70;;;22.43;;
13319;SDS011;59599;47.608;12.190;2023-03-01T20:33:29;30.17;;;21.53;;
13319;SDS011;59599;47.608;12.190;2023-03-01T20:35:54;25.20;;;19.67;;
13319;SDS011;59599;47.608;12.190;2023-03-01T20:38:20;29.03;;;20.53;;
13319;SDS011;59599;47.608;12.190;2023-03-01T20:40:46;30.37;;;21.30;;
13319;SDS011;59599;47.608;12.190;2023-03-01T20:43:12;28.77;;;20.57;;
13319;SDS011;59599;47.608;12.190;2023-03-01T20:45:38;28.33;;;20.60;;
13319;SDS011;59599;47.608;12.190;2023-03-01T20:48:05;30.03;;;22.03;;
13319;SDS011;59599;47.608;12.190;2023-03-01T20:50:31;31.00;;;21.33;;
13319;SDS011;59599;47.608;12.190;2023-03-01T20:52:57;27.03;;;19.90;;
13319;SDS011;59599;47.608;12.190;2023-03-01T20:55:23;35.33;;;21.30;;
13319;SDS011;59599;47.608;12.190;2023-03-01T20:57:49;31.00;;;21.07;;
13319;SDS011;59599;47.608;12.190;2023-03-01T21:00:15;29.87;;;20.30;;